LAX weather

Los Angeles International Airport
Los Angeles, California, United States

Public forecast

Using degrees Fahrenheit for public forecast. Weather courtesy of forecast.io.

METAR (pilot weather report)

Retrieved 2018/06/18 13:53 UTC (1 hour ago):

KLAX 181353Z 25004KT 7SM FEW019 FEW038 SCT130 17/12 A2999 RMK AO2 SLP155 T01720122

TAF (pilot weather forecast)

Retrieved 2018/06/18 12:22 UTC (3 hours ago):

TAF KLAX 181120Z 1812/1918 VRB03KT P6SM FEW020 BKN035 FM181800 26012KT P6SM SCT040 FM190400 26006KT P6SM FEW040 FM190700 VRB03KT P6SM SCT010 BKN020